createdAt,value
2023-02-12T00:01:12.827Z,98237.19
2023-02-12T00:03:57.806Z,98235.72
2023-02-12T00:06:43.002Z,98231.19
2023-02-12T00:09:27.843Z,98238.34
2023-02-12T00:12:12.879Z,98239.28
2023-02-12T00:14:58.320Z,98237.00
2023-02-12T00:17:43.117Z,98239.81
2023-02-12T00:20:28.007Z,98232.94
2023-02-12T00:23:13.006Z,98235.66
2023-02-12T00:25:57.908Z,98241.13
2023-02-12T00:28:43.083Z,98232.84
2023-02-12T00:31:28.238Z,98234.69
2023-02-12T00:34:13.466Z,98235.63
2023-02-12T00:36:58.266Z,98241.41
2023-02-12T00:39:43.223Z,98242.50
2023-02-12T00:42:28.153Z,98233.78
2023-02-12T00:45:13.204Z,98241.41
2023-02-12T00:47:58.016Z,98248.41
2023-02-12T00:50:42.834Z,98249.22
2023-02-12T00:53:27.746Z,98252.75
2023-02-12T00:56:12.585Z,98257.97
2023-02-12T00:58:57.356Z,98246.38
2023-02-12T01:01:42.253Z,98251.91
2023-02-12T01:04:27.691Z,98245.25
2023-02-12T01:07:12.646Z,98251.91
2023-02-12T01:09:57.703Z,98242.72
2023-02-12T01:12:42.561Z,98258.94
2023-02-12T01:15:27.463Z,98246.13
2023-02-12T01:18:12.152Z,98246.97
2023-02-12T01:20:57.031Z,98250.69
2023-02-12T01:23:41.870Z,98251.31
2023-02-12T01:26:26.770Z,98247.19
2023-02-12T01:29:11.672Z,98250.72
2023-02-12T01:31:56.604Z,98241.41
2023-02-12T01:34:42.015Z,98240.81
2023-02-12T01:37:26.736Z,98241.31
2023-02-12T01:40:11.616Z,98246.69
2023-02-12T01:42:56.446Z,98249.38
2023-02-12T01:45:41.388Z,98240.16
2023-02-12T01:48:26.277Z,98237.59
2023-02-12T01:51:11.193Z,98232.53
2023-02-12T01:53:56.096Z,98226.28
2023-02-12T01:56:41.044Z,98222.41
2023-02-12T01:59:25.895Z,98224.13
2023-02-12T02:02:10.653Z,98227.03
2023-02-12T02:04:55.545Z,98224.09
2023-02-12T02:07:40.275Z,98225.41
2023-02-12T02:10:25.215Z,98223.44
2023-02-12T02:13:10.121Z,98209.72
2023-02-12T02:15:55.375Z,98201.78
2023-02-12T02:18:40.323Z,98203.03
2023-02-12T02:21:25.122Z,98204.69
2023-02-12T02:24:10.194Z,98207.47
2023-02-12T02:26:55.047Z,98204.97
2023-02-12T02:29:40.005Z,98211.53
2023-02-12T02:32:24.920Z,98207.19
2023-02-12T02:35:09.952Z,98205.91
2023-02-12T02:37:54.941Z,98200.97
2023-02-12T02:40:39.716Z,98199.53
2023-02-12T02:43:24.746Z,98201.69
2023-02-12T02:46:09.600Z,98198.50
2023-02-12T02:48:54.529Z,98193.59
2023-02-12T02:51:39.363Z,98202.34
2023-02-12T02:54:24.230Z,98198.63
2023-02-12T02:57:09.030Z,98195.22
2023-02-12T02:59:53.916Z,98188.16
2023-02-12T03:02:38.798Z,98190.88
2023-02-12T03:05:23.711Z,98182.34
2023-02-12T03:08:08.405Z,98186.13
2023-02-12T03:10:53.150Z,98180.75
2023-02-12T03:13:38.180Z,98186.09
2023-02-12T03:16:22.976Z,98187.38
2023-02-12T03:19:07.967Z,98200.47
2023-02-12T03:21:52.855Z,98191.34
2023-02-12T03:24:37.847Z,98188.94
2023-02-12T03:27:22.802Z,98188.25
2023-02-12T03:30:07.651Z,98191.81
2023-02-12T03:32:52.629Z,98195.69
2023-02-12T03:35:37.407Z,98199.66
2023-02-12T03:38:22.387Z,98199.84
2023-02-12T03:41:07.117Z,98200.84
2023-02-12T03:43:51.901Z,98200.66
2023-02-12T03:46:36.753Z,98194.47
2023-02-12T03:49:21.630Z,98207.00
2023-02-12T03:52:06.526Z,98199.34
2023-02-12T03:54:51.499Z,98193.97
2023-02-12T03:57:36.441Z,98201.31
2023-02-12T04:00:21.268Z,98200.63
2023-02-12T04:03:06.317Z,98199.94
2023-02-12T04:05:51.268Z,98204.34
2023-02-12T04:08:36.302Z,98191.94
2023-02-12T04:11:21.113Z,98201.41
2023-02-12T04:14:05.882Z,98201.91
2023-02-12T04:16:50.788Z,98212.66
2023-02-12T04:19:35.584Z,98205.44
2023-02-12T04:22:20.401Z,98198.00
2023-02-12T04:25:05.244Z,98191.88
2023-02-12T04:27:50.200Z,98192.22
2023-02-12T04:30:35.049Z,98197.84
2023-02-12T04:33:19.936Z,98194.50
2023-02-12T04:36:04.771Z,98194.50
2023-02-12T04:38:49.596Z,98201.34
2023-02-12T04:41:34.440Z,98210.53
2023-02-12T04:44:19.338Z,98214.59
2023-02-12T04:47:04.280Z,98206.13
2023-02-12T04:49:49.115Z,98192.84
2023-02-12T04:52:34.058Z,98198.47
2023-02-12T04:55:18.827Z,98204.44
2023-02-12T04:58:03.630Z,98197.88
2023-02-12T05:00:48.517Z,98194.75
2023-02-12T05:03:33.679Z,98195.81
2023-02-12T05:06:18.425Z,98198.81
2023-02-12T05:09:03.410Z,98193.53
2023-02-12T05:11:48.326Z,98200.09
2023-02-12T05:14:33.317Z,98198.41
2023-02-12T05:17:18.347Z,98192.19
2023-02-12T05:20:03.234Z,98189.69
2023-02-12T05:22:48.292Z,98182.19
2023-02-12T05:25:33.220Z,98199.03
2023-02-12T05:28:18.583Z,98196.78
2023-02-12T05:31:03.623Z,98196.53
2023-02-12T05:33:48.872Z,98186.84
2023-02-12T05:36:33.872Z,98188.88
2023-02-12T05:39:18.613Z,98191.19
2023-02-12T05:42:03.620Z,98194.16
2023-02-12T05:44:48.451Z,98199.06
2023-02-12T05:47:33.387Z,98191.28
2023-02-12T05:50:18.120Z,98186.97
2023-02-12T05:53:03.174Z,98198.69
2023-02-12T05:55:47.963Z,98184.94
2023-02-12T05:58:32.852Z,98193.69
2023-02-12T06:01:17.682Z,98197.63
2023-02-12T06:04:02.648Z,98200.72
2023-02-12T06:06:49.135Z,98195.47
2023-02-12T06:09:34.175Z,98203.25
2023-02-12T06:12:19.137Z,98197.25
2023-02-12T06:15:03.968Z,98198.22
2023-02-12T06:17:48.889Z,98199.53
2023-02-12T06:20:33.849Z,98209.00
2023-02-12T06:23:18.750Z,98200.03
2023-02-12T06:26:03.648Z,98206.34
2023-02-12T06:28:48.497Z,98205.53
2023-02-12T06:31:33.420Z,98210.16
2023-02-12T06:34:18.559Z,98201.53
2023-02-12T06:37:03.589Z,98205.16
2023-02-12T06:39:48.441Z,98203.47
2023-02-12T06:42:33.305Z,98212.69
2023-02-12T06:45:18.161Z,98205.16
2023-02-12T06:48:02.994Z,98202.16
2023-02-12T06:50:47.898Z,98210.66
2023-02-12T06:53:32.718Z,98221.91
2023-02-12T06:56:17.734Z,98216.19
2023-02-12T06:59:02.620Z,98218.69
2023-02-12T07:01:47.481Z,98221.69
2023-02-12T07:04:32.382Z,98222.53
2023-02-12T07:07:17.231Z,98221.94
2023-02-12T07:10:02.282Z,98228.59
2023-02-12T07:12:47.142Z,98237.94
2023-02-12T07:15:32.189Z,98235.53
2023-02-12T07:18:17.096Z,98247.88
2023-02-12T07:21:01.944Z,98247.97
2023-02-12T07:23:49.095Z,98240.56
2023-02-12T07:26:35.583Z,98236.88
2023-02-12T07:29:20.519Z,98237.44
2023-02-12T07:32:05.466Z,98238.00
2023-02-12T07:34:50.319Z,98247.41
2023-02-12T07:37:35.152Z,98243.44
2023-02-12T07:40:20.182Z,98246.97
2023-02-12T07:43:05.142Z,98249.75
2023-02-12T07:45:50.117Z,98240.47
2023-02-12T07:48:34.990Z,98244.28
2023-02-12T07:51:19.964Z,98245.19
2023-02-12T07:54:05.083Z,98249.47
2023-02-12T07:56:50.015Z,98250.38
2023-02-12T07:59:34.921Z,98248.41
2023-02-12T08:02:19.687Z,98253.91
2023-02-12T08:05:04.693Z,98251.00
2023-02-12T08:07:49.544Z,98245.47
2023-02-12T08:10:34.452Z,98239.53
2023-02-12T08:13:19.421Z,98245.31
2023-02-12T08:16:04.322Z,98251.53
2023-02-12T08:18:49.255Z,98253.03
2023-02-12T08:21:34.108Z,98248.97
2023-02-12T08:24:19.170Z,98253.63
2023-02-12T08:27:03.976Z,98251.56
2023-02-12T08:29:48.829Z,98252.34
2023-02-12T08:32:33.806Z,98252.59
2023-02-12T08:35:18.608Z,98244.81
2023-02-12T08:38:03.576Z,98248.56
2023-02-12T08:40:48.634Z,98250.63
2023-02-12T08:43:33.477Z,98246.78
2023-02-12T08:46:18.348Z,98244.25
2023-02-12T08:49:03.275Z,98237.28
2023-02-12T08:51:48.121Z,98236.56
2023-02-12T08:54:33.031Z,98238.31
2023-02-12T08:57:17.972Z,98241.50
2023-02-12T09:00:02.734Z,98238.38
2023-02-12T09:02:47.739Z,98236.47
2023-02-12T09:05:32.488Z,98238.25
2023-02-12T09:08:17.461Z,98240.78
2023-02-12T09:11:02.306Z,98234.31
2023-02-12T09:13:47.103Z,98237.00
2023-02-12T09:16:31.884Z,98236.88
2023-02-12T09:19:16.799Z,98238.69
2023-02-12T09:22:01.606Z,98228.34
2023-02-12T09:24:46.482Z,98225.00
2023-02-12T09:27:31.536Z,98239.25
2023-02-12T09:30:16.325Z,98240.38
2023-02-12T09:33:01.386Z,98234.56
2023-02-12T09:35:46.326Z,98225.31
2023-02-12T09:38:31.262Z,98228.28
2023-02-12T09:41:16.119Z,98239.06
2023-02-12T09:44:01.029Z,98244.16
2023-02-12T09:46:45.927Z,98240.72
2023-02-12T09:49:31.349Z,98239.41
2023-02-12T09:52:16.150Z,98243.00
2023-02-12T09:55:00.900Z,98241.56
2023-02-12T09:57:45.705Z,98241.47
2023-02-12T10:00:30.615Z,98237.53
2023-02-12T10:03:15.499Z,98235.97
2023-02-12T10:06:00.274Z,98237.88
2023-02-12T10:08:45.073Z,98236.34
2023-02-12T10:11:29.993Z,98232.56
2023-02-12T10:14:15.007Z,98231.81
2023-02-12T10:16:59.991Z,98232.00
2023-02-12T10:19:45.029Z,98237.38
2023-02-12T10:22:29.966Z,98240.25
2023-02-12T10:25:14.736Z,98231.88
2023-02-12T10:27:59.709Z,98233.84
2023-02-12T10:30:44.644Z,98235.66
2023-02-12T10:33:29.568Z,98238.59
2023-02-12T10:36:14.303Z,98237.75
2023-02-12T10:38:59.140Z,98234.97
2023-02-12T10:41:44.046Z,98229.19
2023-02-12T10:44:28.889Z,98226.97
2023-02-12T10:47:13.880Z,98216.88
2023-02-12T10:49:58.580Z,98215.38
2023-02-12T10:52:43.593Z,98213.63
2023-02-12T10:55:28.520Z,98220.38
2023-02-12T10:58:13.504Z,98214.50
2023-02-12T11:00:58.407Z,98202.56
2023-02-12T11:03:43.307Z,98198.47
2023-02-12T11:06:28.240Z,98195.69
2023-02-12T11:09:13.023Z,98192.81
2023-02-12T11:11:57.830Z,98190.16
2023-02-12T11:14:42.593Z,98178.53
2023-02-12T11:17:27.569Z,98169.22
2023-02-12T11:20:12.455Z,98170.06
2023-02-12T11:22:57.566Z,98161.75
2023-02-12T11:25:42.496Z,98150.44
2023-02-12T11:28:27.399Z,98158.06
2023-02-12T11:31:12.823Z,98149.44
2023-02-12T11:33:57.645Z,98148.50
2023-02-12T11:36:42.599Z,98148.19
2023-02-12T11:39:27.446Z,98141.59
2023-02-12T11:42:12.298Z,98137.81
2023-02-12T11:44:57.126Z,98140.31
2023-02-12T11:47:42.145Z,98137.84
2023-02-12T11:50:27.014Z,98134.22
2023-02-12T11:53:11.912Z,98129.59
2023-02-12T11:55:56.766Z,98112.63
2023-02-12T11:58:41.507Z,98114.88
2023-02-12T12:01:26.479Z,98108.50
2023-02-12T12:04:11.388Z,98110.56
2023-02-12T12:06:56.328Z,98116.56
2023-02-12T12:09:41.298Z,98119.94
2023-02-12T12:12:26.219Z,98115.09
2023-02-12T12:15:11.058Z,98098.88
2023-02-12T12:17:56.188Z,98103.31
2023-02-12T12:20:41.069Z,98096.91
2023-02-12T12:23:26.002Z,98095.28
2023-02-12T12:26:10.912Z,98085.88
2023-02-12T12:28:55.766Z,98086.97
2023-02-12T12:31:40.779Z,98085.97
2023-02-12T12:34:25.672Z,98084.00
2023-02-12T12:37:10.619Z,98083.44
2023-02-12T12:39:55.522Z,98093.53
2023-02-12T12:42:40.537Z,98090.28
2023-02-12T12:45:25.409Z,98078.97
2023-02-12T12:48:10.180Z,98082.72
2023-02-12T12:50:55.246Z,98080.22
2023-02-12T12:53:40.199Z,98082.84
2023-02-12T12:56:25.583Z,98070.75
2023-02-12T12:59:10.375Z,98068.75
2023-02-12T13:01:55.313Z,98065.75
2023-02-12T13:04:40.163Z,98057.19
2023-02-12T13:07:24.967Z,98054.59
2023-02-12T13:10:09.836Z,98055.88
2023-02-12T13:12:54.695Z,98062.75
2023-02-12T13:15:39.883Z,98056.97
2023-02-12T13:18:24.595Z,98058.47
2023-02-12T13:21:09.533Z,98058.50
2023-02-12T13:23:54.435Z,98046.03
2023-02-12T13:26:39.428Z,98048.91
2023-02-12T13:29:24.191Z,98041.63
2023-02-12T13:32:09.315Z,98035.97
2023-02-12T13:34:54.722Z,98040.59
2023-02-12T13:37:39.628Z,98040.53
2023-02-12T13:40:24.484Z,98029.09
2023-02-12T13:43:09.430Z,98031.75
2023-02-12T13:45:54.668Z,98029.91
2023-02-12T13:48:39.772Z,98029.03
2023-02-12T13:51:24.632Z,98035.75
2023-02-12T13:54:09.522Z,98026.66
2023-02-12T13:56:54.337Z,98032.28
2023-02-12T13:59:39.251Z,98024.97
2023-02-12T14:02:24.149Z,98024.88
2023-02-12T14:05:09.136Z,98030.06
2023-02-12T14:07:53.941Z,98023.50
2023-02-12T14:10:38.775Z,98025.34
2023-02-12T14:13:23.513Z,98028.09
2023-02-12T14:16:08.421Z,98030.31
2023-02-12T14:18:53.210Z,98034.75
2023-02-12T14:21:38.211Z,98026.66
2023-02-12T14:24:23.164Z,98031.16
2023-02-12T14:27:08.025Z,98023.38
2023-02-12T14:29:52.874Z,98026.97
2023-02-12T14:32:37.611Z,98030.38
2023-02-12T14:35:22.563Z,98033.22
2023-02-12T14:38:07.407Z,98021.69
2023-02-12T14:40:52.305Z,98028.09
2023-02-12T14:43:37.124Z,98021.22
2023-02-12T14:46:22.171Z,98022.84
2023-02-12T14:49:07.105Z,98031.06
2023-02-12T14:51:51.996Z,98029.78
2023-02-12T14:54:37.070Z,98032.63
2023-02-12T14:57:21.863Z,98038.75
2023-02-12T15:00:06.758Z,98039.38
2023-02-12T15:02:51.557Z,98031.22
2023-02-12T15:05:36.297Z,98038.63
2023-02-12T15:08:21.218Z,98035.56
2023-02-12T15:11:06.197Z,98038.66
2023-02-12T15:13:51.158Z,98047.16
2023-02-12T15:16:35.990Z,98047.16
2023-02-12T15:19:21.009Z,98056.91
2023-02-12T15:22:05.924Z,98055.00
2023-02-12T15:24:50.924Z,98058.22
2023-02-12T15:27:35.762Z,98054.88
2023-02-12T15:30:26.399Z,98053.28
2023-02-12T15:33:13.628Z,98053.13
2023-02-12T15:35:59.844Z,98055.53
2023-02-12T15:38:44.908Z,98049.13
2023-02-12T15:41:29.934Z,98048.38
2023-02-12T15:44:15.196Z,98056.41
2023-02-12T15:47:00.168Z,98058.72
2023-02-12T15:49:44.902Z,98066.41
2023-02-12T15:52:29.837Z,98061.09
2023-02-12T15:55:14.714Z,98060.06
2023-02-12T15:57:59.660Z,98064.81
2023-02-12T16:00:44.570Z,98065.56
2023-02-12T16:03:29.350Z,98064.03
2023-02-12T16:06:14.354Z,98069.47
2023-02-12T16:08:59.169Z,98065.31
2023-02-12T16:11:44.038Z,98065.91
2023-02-12T16:14:28.816Z,98065.91
2023-02-12T16:17:13.655Z,98065.34
2023-02-12T16:19:58.566Z,98070.00
2023-02-12T16:22:43.491Z,98068.66
2023-02-12T16:25:28.393Z,98072.88
2023-02-12T16:28:13.285Z,98066.22
2023-02-12T16:30:58.323Z,98073.72
2023-02-12T16:33:43.008Z,98068.22
2023-02-12T16:36:27.916Z,98075.34
2023-02-12T16:39:12.529Z,98072.91
2023-02-12T16:41:57.474Z,98068.91
2023-02-12T16:44:42.332Z,98075.19
2023-02-12T16:47:27.270Z,98081.13
2023-02-12T16:50:12.300Z,98089.63
2023-02-12T16:52:57.162Z,98085.31
2023-02-12T16:55:42.136Z,98092.44
2023-02-12T16:58:26.952Z,98088.94
2023-02-12T17:01:11.917Z,98092.97
2023-02-12T17:03:56.650Z,98089.19
2023-02-12T17:06:41.618Z,98093.44
2023-02-12T17:09:26.606Z,98100.56
2023-02-12T17:12:11.530Z,98096.75
2023-02-12T17:14:56.460Z,98097.97
2023-02-12T17:17:41.246Z,98107.69
2023-02-12T17:20:26.167Z,98103.84
2023-02-12T17:23:11.059Z,98098.06
2023-02-12T17:25:56.172Z,98104.72
2023-02-12T17:28:41.181Z,98101.28
2023-02-12T17:31:26.335Z,98101.16
2023-02-12T17:34:11.156Z,98103.94
2023-02-12T17:36:55.986Z,98105.22
2023-02-12T17:39:41.076Z,98112.16
2023-02-12T17:42:25.921Z,98107.03
2023-02-12T17:45:10.872Z,98114.63
2023-02-12T17:47:55.685Z,98105.81
2023-02-12T17:50:40.584Z,98114.34
2023-02-12T17:53:25.504Z,98111.00
2023-02-12T17:56:10.607Z,98120.88
2023-02-12T17:58:55.517Z,98123.22
2023-02-12T18:01:40.485Z,98123.13
2023-02-12T18:04:25.434Z,98120.31
2023-02-12T18:07:10.247Z,98130.31
2023-02-12T18:09:55.289Z,98127.00
2023-02-12T18:12:40.381Z,98132.44
2023-02-12T18:15:25.221Z,98131.31
2023-02-12T18:18:09.931Z,98133.53
2023-02-12T18:20:55.517Z,98137.75
2023-02-12T18:23:41.020Z,98140.97
2023-02-12T18:26:25.949Z,98136.03
2023-02-12T18:29:10.865Z,98131.69
2023-02-12T18:31:55.823Z,98136.50
2023-02-12T18:34:40.761Z,98137.13
2023-02-12T18:37:25.658Z,98134.41
2023-02-12T18:40:10.605Z,98139.63
2023-02-12T18:42:55.385Z,98134.28
2023-02-12T18:45:40.337Z,98141.78
2023-02-12T18:48:25.210Z,98136.72
2023-02-12T18:51:10.085Z,98139.63
2023-02-12T18:53:54.975Z,98144.56
2023-02-12T18:56:39.742Z,98145.41
2023-02-12T18:59:27.110Z,98145.25
2023-02-12T19:02:12.170Z,98144.94
2023-02-12T19:04:57.136Z,98140.63
2023-02-12T19:07:41.971Z,98139.91
2023-02-12T19:10:26.713Z,98147.34
2023-02-12T19:13:11.740Z,98147.66
2023-02-12T19:15:56.630Z,98143.88
2023-02-12T19:18:41.447Z,98142.06
2023-02-12T19:21:26.502Z,98147.19
2023-02-12T19:24:11.737Z,98146.78
2023-02-12T19:26:56.654Z,98142.47
2023-02-12T19:29:41.549Z,98139.28
2023-02-12T19:32:26.457Z,98143.31
2023-02-12T19:35:11.266Z,98136.63
2023-02-12T19:37:56.202Z,98139.84
2023-02-12T19:40:41.048Z,98137.47
2023-02-12T19:43:26.044Z,98142.47
2023-02-12T19:46:10.861Z,98143.69
2023-02-12T19:48:55.829Z,98142.72
2023-02-12T19:51:40.833Z,98142.72
2023-02-12T19:54:25.590Z,98153.03
2023-02-12T19:57:12.571Z,98163.63
2023-02-12T19:59:58.457Z,98153.63
2023-02-12T20:02:44.036Z,98160.72
2023-02-12T20:05:29.310Z,98169.47
2023-02-12T20:08:14.232Z,98169.75
2023-02-12T20:10:59.165Z,98163.06
2023-02-12T20:13:43.934Z,98164.06
2023-02-12T20:16:28.790Z,98164.88
2023-02-12T20:19:13.454Z,98164.47
2023-02-12T20:21:58.372Z,98169.22
2023-02-12T20:24:43.191Z,98178.66
2023-02-12T20:27:28.192Z,98179.63
2023-02-12T20:30:13.056Z,98181.16
2023-02-12T20:32:57.989Z,98178.41
2023-02-12T20:35:42.910Z,98178.25
2023-02-12T20:38:27.830Z,98180.75
2023-02-12T20:41:12.652Z,98187.75
2023-02-12T20:43:57.468Z,98182.16
2023-02-12T20:46:42.417Z,98183.53
2023-02-12T20:49:27.258Z,98179.38
2023-02-12T20:52:12.087Z,98182.84
2023-02-12T20:54:56.945Z,98180.63
2023-02-12T20:57:41.754Z,98188.56
2023-02-12T21:00:26.742Z,98187.16
2023-02-12T21:03:11.666Z,98186.03
2023-02-12T21:05:56.850Z,98195.78
2023-02-12T21:08:41.999Z,98192.44
2023-02-12T21:11:26.804Z,98185.94
2023-02-12T21:14:21.942Z,98190.88
2023-02-12T21:17:07.674Z,98199.75
2023-02-12T21:19:52.486Z,98202.59
2023-02-12T21:22:37.321Z,98202.59
2023-02-12T21:25:22.181Z,98199.47
2023-02-12T21:28:07.265Z,98204.69
2023-02-12T21:30:52.039Z,98200.50
2023-02-12T21:33:36.973Z,98199.34
2023-02-12T21:36:22.081Z,98205.69
2023-02-12T21:39:06.895Z,98201.25
2023-02-12T21:41:51.871Z,98203.88
2023-02-12T21:44:36.804Z,98205.63
2023-02-12T21:47:21.671Z,98208.44
2023-02-12T21:50:06.470Z,98204.78
2023-02-12T21:52:51.372Z,98207.94
2023-02-12T21:55:36.349Z,98202.41
2023-02-12T21:58:21.326Z,98211.31
2023-02-12T22:01:06.347Z,98200.78
2023-02-12T22:03:51.100Z,98211.72
2023-02-12T22:06:35.966Z,98207.97
2023-02-12T22:09:20.809Z,98204.94
2023-02-12T22:12:05.854Z,98212.00
2023-02-12T22:14:50.578Z,98213.44
2023-02-12T22:17:35.541Z,98208.44
2023-02-12T22:20:20.398Z,98217.28
2023-02-12T22:23:05.297Z,98218.56
2023-02-12T22:25:50.268Z,98215.75
2023-02-12T22:28:35.132Z,98212.16
2023-02-12T22:31:20.071Z,98208.41
2023-02-12T22:34:05.053Z,98217.13
2023-02-12T22:36:49.886Z,98218.34
2023-02-12T22:39:34.705Z,98224.69
2023-02-12T22:42:19.826Z,98222.47
2023-02-12T22:45:04.616Z,98225.19
2023-02-12T22:47:49.461Z,98227.13
2023-02-12T22:50:34.691Z,98226.53
2023-02-12T22:53:20.597Z,98237.63
2023-02-12T22:56:05.512Z,98230.00
2023-02-12T22:58:50.491Z,98236.56
2023-02-12T23:01:35.479Z,98240.13
2023-02-12T23:04:20.424Z,98246.25
2023-02-12T23:07:05.751Z,98242.91
2023-02-12T23:09:50.699Z,98251.25
2023-02-12T23:12:35.583Z,98261.16
2023-02-12T23:15:20.536Z,98267.38
2023-02-12T23:18:05.381Z,98259.06
2023-02-12T23:20:50.373Z,98265.44
2023-02-12T23:23:35.158Z,98273.13
2023-02-12T23:26:20.076Z,98281.34
2023-02-12T23:29:04.866Z,98282.91
2023-02-12T23:31:49.969Z,98271.41
2023-02-12T23:34:34.860Z,98276.22
2023-02-12T23:37:19.686Z,98268.31
2023-02-12T23:40:04.701Z,98274.28
2023-02-12T23:42:49.504Z,98269.06
2023-02-12T23:45:34.373Z,98263.16
2023-02-12T23:48:19.153Z,98265.03
2023-02-12T23:51:03.988Z,98265.75
2023-02-12T23:53:48.683Z,98267.97
2023-02-12T23:56:33.569Z,98270.16
2023-02-12T23:59:18.457Z,98279.75
